Time;durP1;ratioP1;P1;durP2;ratioP2;P2;SDS_P1;SDS_P2;PMS_P1;PMS_P2;Temp;Humidity;BMP_temperature;BMP_pressure;BME280_temperature;BME280_humidity;BME280_pressure;Samples;Min_cycle;Max_cycle;Signal;HPM_P1;HPM_P2
2023/09/13 00:00:07;;;;;;;;;;;25.30;62.20;;;;;;5001519;28;20017;-78
2023/09/13 00:02:34;;;;;;;;;;;25.30;62.60;;;;;;5007142;28;20127;-78
2023/09/13 00:05:02;;;;;;;;;;;25.30;62.70;;;;;;5024809;28;25077;-77
2023/09/13 00:07:28;;;;;;;;;;;25.30;62.60;;;;;;5005924;28;20075;-78
2023/09/13 00:09:55;;;;;;;;;;;25.20;62.70;;;;;;5009786;28;20165;-77
2023/09/13 00:12:24;;;;;;;;;;;25.20;62.80;;;;;;5020408;28;19985;-78
2023/09/13 00:14:50;;;;;;;;;;;25.20;63.00;;;;;;5007701;28;20159;-78
2023/09/13 00:17:17;;;;;;;;;;;25.10;63.00;;;;;;4986844;28;25088;-76
2023/09/13 00:19:44;;;;;;;;;;;25.10;63.10;;;;;;5024226;28;19959;-76
2023/09/13 00:22:12;;;;;;;;;;;25.10;63.30;;;;;;5005953;28;25111;-76
2023/09/13 00:24:39;;;;;;;;;;;25.10;63.40;;;;;;5022763;28;19980;-76
2023/09/13 00:27:06;;;;;;;;;;;25.00;63.30;;;;;;5023307;28;20201;-76
2023/09/13 00:29:34;;;;;;;;;;;25.00;63.40;;;;;;5022946;28;20059;-76
2023/09/13 00:32:02;;;;;;;;;;;25.00;63.80;;;;;;5019805;28;20179;-76
2023/09/13 00:34:29;;;;;;;;;;;25.00;63.90;;;;;;5025212;28;20142;-76
2023/09/13 00:36:56;;;;;;;;;;;24.90;63.90;;;;;;5024226;28;20150;-75
2023/09/13 00:39:23;;;;;;;;;;;24.90;63.90;;;;;;5021370;28;25072;-77
2023/09/13 00:41:50;;;;;;;;;;;24.90;64.00;;;;;;5020545;28;20129;-77
2023/09/13 00:44:16;;;;;;;;;;;24.90;64.20;;;;;;5025096;28;20146;-76
2023/09/13 00:46:45;;;;;;;;;;;24.90;64.30;;;;;;5020464;28;20176;-77
2023/09/13 00:49:12;;;;;;;;;;;24.80;64.40;;;;;;5021425;28;25059;-76
2023/09/13 00:51:41;;;;;;;;;;;24.80;64.50;;;;;;5003052;28;20600;-77
2023/09/13 00:54:09;;;;;;;;;;;24.80;64.60;;;;;;5022452;28;20149;-77
2023/09/13 00:56:36;;;;;;;;;;;24.80;64.70;;;;;;5021882;28;25067;-76
2023/09/13 00:59:03;;;;;;;;;;;24.80;64.80;;;;;;5023772;28;20095;-77
2023/09/13 01:01:30;;;;;;;;;;;24.70;64.90;;;;;;5019597;28;20122;-78
2023/09/13 01:03:59;;;;;;;;;;;24.70;65.00;;;;;;5005862;28;20136;-77
2023/09/13 01:06:27;;;;;;;;;;;24.70;64.90;;;;;;5021264;28;20099;-77
2023/09/13 01:08:54;;;;;;;;;;;24.70;65.10;;;;;;4999994;28;25069;-76
2023/09/13 01:11:20;;;;;;;;;;;24.60;65.00;;;;;;5025891;28;19969;-77
2023/09/13 01:13:47;;;;;;;;;;;24.60;65.10;;;;;;5020004;28;20146;-76
2023/09/13 01:16:19;;;;;;;;;;;24.60;65.20;;;;;;5023622;28;20208;-77
2023/09/13 01:18:52;;;;;;;;;;;24.60;65.30;;;;;;5020375;28;19963;-77
2023/09/13 01:21:37;;;;;;;;;;;24.60;65.40;;;;;;5001415;28;20179;-77
2023/09/13 01:24:12;;;;;;;;;;;24.50;65.50;;;;;;5006593;28;20585;-77
2023/09/13 01:26:52;;;;;;;;;;;24.50;65.60;;;;;;4999310;28;20126;-76
2023/09/13 01:29:21;;;;;;;;;;;24.50;65.70;;;;;;5026173;28;19957;-77
2023/09/13 01:31:47;;;;;;;;;;;24.40;65.60;;;;;;5014557;28;25130;-76
2023/09/13 01:34:14;;;;;;;;;;;24.40;65.60;;;;;;5008645;28;20090;-77
2023/09/13 01:36:41;;;;;;;;;;;24.40;65.90;;;;;;5021236;28;20096;-76
2023/09/13 01:39:08;;;;;;;;;;;24.40;66.00;;;;;;5020362;28;20011;-77
2023/09/13 01:41:37;;;;;;;;;;;24.40;65.90;;;;;;5021632;28;19971;-78
2023/09/13 01:44:04;;;;;;;;;;;24.40;66.00;;;;;;5015869;28;20146;-76
2023/09/13 01:46:35;;;;;;;;;;;24.30;66.00;;;;;;5001602;28;25127;-77
2023/09/13 01:49:02;;;;;;;;;;;24.30;66.10;;;;;;5007552;28;25102;-78
2023/09/13 01:51:29;;;;;;;;;;;24.30;66.20;;;;;;5018704;28;25151;-77
2023/09/13 01:53:55;;;;;;;;;;;24.30;66.20;;;;;;5020147;28;25059;-77
2023/09/13 01:56:22;;;;;;;;;;;24.20;66.20;;;;;;5018260;28;20464;-77
2023/09/13 01:58:49;;;;;;;;;;;24.20;66.30;;;;;;5021121;28;20095;-77
2023/09/13 02:01:16;;;;;;;;;;;24.20;66.40;;;;;;5000101;28;25079;-77
2023/09/13 02:03:44;;;;;;;;;;;24.20;66.40;;;;;;5020033;28;19996;-77
2023/09/13 02:06:12;;;;;;;;;;;24.20;66.40;;;;;;5022067;28;20732;-76
2023/09/13 02:08:39;;;;;;;;;;;24.20;66.40;;;;;;5003051;28;20185;-77
2023/09/13 02:11:06;;;;;;;;;;;24.10;66.70;;;;;;5018237;28;20160;-78
2023/09/13 02:13:32;;;;;;;;;;;24.10;66.60;;;;;;5023204;28;20126;-77
2023/09/13 02:15:59;;;;;;;;;;;24.10;67.00;;;;;;5013478;28;20114;-76
2023/09/13 02:18:26;;;;;;;;;;;24.00;66.90;;;;;;5021829;28;20094;-77
2023/09/13 02:20:54;;;;;;;;;;;24.00;66.80;;;;;;4982647;28;25109;-77
2023/09/13 02:23:21;;;;;;;;;;;24.00;67.10;;;;;;5016129;28;20033;-78
2023/09/13 02:25:48;;;;;;;;;;;24.00;67.00;;;;;;5017839;28;20034;-76
2023/09/13 02:28:14;;;;;;;;;;;24.00;67.10;;;;;;5018564;28;20209;-77
2023/09/13 02:30:41;;;;;;;;;;;23.90;67.20;;;;;;5015858;28;20012;-77
2023/09/13 02:33:08;;;;;;;;;;;23.90;67.30;;;;;;5016472;28;20606;-77
2023/09/13 02:35:34;;;;;;;;;;;23.90;67.30;;;;;;5016102;28;20080;-77
2023/09/13 02:38:02;;;;;;;;;;;23.90;68.20;;;;;;5003608;28;20765;-78
2023/09/13 02:40:29;;;;;;;;;;;23.80;67.50;;;;;;5000706;28;20192;-77
2023/09/13 02:42:56;;;;;;;;;;;23.80;67.60;;;;;;5015214;28;25144;-77
2023/09/13 02:45:22;;;;;;;;;;;23.80;67.60;;;;;;5017248;28;25061;-78
2023/09/13 02:47:49;;;;;;;;;;;23.80;67.70;;;;;;4997760;28;19969;-77
2023/09/13 02:50:16;;;;;;;;;;;23.80;67.70;;;;;;5014790;28;25178;-78
2023/09/13 02:52:42;;;;;;;;;;;23.70;67.80;;;;;;4983281;28;20009;-77
2023/09/13 02:55:11;;;;;;;;;;;23.70;67.80;;;;;;5021190;28;20127;-77
2023/09/13 02:57:37;;;;;;;;;;;23.70;68.00;;;;;;5018655;28;20083;-77
2023/09/13 03:00:05;;;;;;;;;;;23.70;68.00;;;;;;5018413;28;20095;-77
2023/09/13 03:02:32;;;;;;;;;;;23.70;68.00;;;;;;5015733;28;20745;-79
2023/09/13 03:04:59;;;;;;;;;;;23.60;68.00;;;;;;4983004;28;20598;-77
2023/09/13 03:07:25;;;;;;;;;;;23.60;68.30;;;;;;5017099;28;19960;-77
2023/09/13 03:09:54;;;;;;;;;;;23.60;68.40;;;;;;5040019;28;20026;-77
2023/09/13 03:12:22;;;;;;;;;;;23.60;68.40;;;;;;5018125;28;20080;-77
2023/09/13 03:14:49;;;;;;;;;;;23.60;68.50;;;;;;5019433;28;20103;-77
2023/09/13 03:17:16;;;;;;;;;;;23.50;68.60;;;;;;5023469;28;20106;-77
2023/09/13 03:19:43;;;;;;;;;;;23.50;68.70;;;;;;5019140;28;20133;-78
2023/09/13 03:22:10;;;;;;;;;;;23.50;68.60;;;;;;5025183;28;25069;-77
2023/09/13 03:24:36;;;;;;;;;;;23.50;68.70;;;;;;5005811;28;25094;-77
2023/09/13 03:27:03;;;;;;;;;;;23.50;68.80;;;;;;5024352;28;20725;-76
2023/09/13 03:29:33;;;;;;;;;;;23.40;68.70;;;;;;5026001;28;20128;-77
2023/09/13 03:32:00;;;;;;;;;;;23.40;68.80;;;;;;4995145;28;20633;-77
2023/09/13 03:34:26;;;;;;;;;;;23.40;69.00;;;;;;5014604;28;20086;-77
2023/09/13 03:36:53;;;;;;;;;;;23.40;69.00;;;;;;5018643;28;20119;-77
2023/09/13 03:39:20;;;;;;;;;;;23.40;69.10;;;;;;5021338;28;25070;-77
2023/09/13 03:41:47;;;;;;;;;;;23.30;69.00;;;;;;5019313;28;20356;-77
2023/09/13 03:44:13;;;;;;;;;;;23.30;69.10;;;;;;5021521;28;20391;-77
2023/09/13 03:46:42;;;;;;;;;;;23.30;69.20;;;;;;4999444;28;25102;-77
2023/09/13 03:49:08;;;;;;;;;;;23.30;69.30;;;;;;4999339;28;19986;-78
2023/09/13 03:51:35;;;;;;;;;;;23.30;69.30;;;;;;5025929;28;20445;-79
2023/09/13 03:54:01;;;;;;;;;;;23.20;69.30;;;;;;5003036;28;20098;-78
2023/09/13 03:56:28;;;;;;;;;;;23.20;69.40;;;;;;4998267;28;20233;-79
2023/09/13 03:58:55;;;;;;;;;;;23.20;69.40;;;;;;5017237;28;20000;-79
2023/09/13 04:01:22;;;;;;;;;;;23.20;69.50;;;;;;5021019;28;20221;-79
2023/09/13 04:03:49;;;;;;;;;;;23.20;69.50;;;;;;5018288;28;19980;-77
2023/09/13 04:06:18;;;;;;;;;;;23.20;69.60;;;;;;5022163;28;20101;-78
2023/09/13 04:08:44;;;;;;;;;;;23.10;69.60;;;;;;5020435;28;20114;-79
2023/09/13 04:11:12;;;;;;;;;;;23.10;69.70;;;;;;5016001;28;20102;-79
2023/09/13 04:13:39;;;;;;;;;;;23.10;69.70;;;;;;5019226;28;20095;-78
2023/09/13 04:16:08;;;;;;;;;;;23.10;69.80;;;;;;5017853;28;20083;-79
2023/09/13 04:18:35;;;;;;;;;;;23.10;69.80;;;;;;5021114;28;20103;-78
2023/09/13 04:21:03;;;;;;;;;;;23.10;69.90;;;;;;5001890;28;20126;-78
2023/09/13 04:23:30;;;;;;;;;;;23.10;70.00;;;;;;5017608;28;20143;-78
2023/09/13 04:25:56;;;;;;;;;;;23.00;70.00;;;;;;5016460;28;20125;-79
2023/09/13 04:28:23;;;;;;;;;;;23.00;70.00;;;;;;5000449;28;20130;-79
2023/09/13 04:30:50;;;;;;;;;;;23.00;70.20;;;;;;5019825;28;20365;-78
2023/09/13 04:33:16;;;;;;;;;;;23.00;70.20;;;;;;5001834;28;19974;-78
2023/09/13 04:35:43;;;;;;;;;;;23.00;70.20;;;;;;5019320;28;20125;-79
2023/09/13 04:38:11;;;;;;;;;;;23.00;70.30;;;;;;5019613;28;20124;-79
2023/09/13 04:40:41;;;;;;;;;;;22.90;70.50;;;;;;4999621;28;20680;-79
2023/09/13 04:43:23;;;;;;;;;;;22.90;70.50;;;;;;5016933;28;21400;-79
2023/09/13 04:45:50;;;;;;;;;;;22.90;70.60;;;;;;4999672;28;20430;-79
2023/09/13 04:48:16;;;;;;;;;;;22.80;70.70;;;;;;5019507;28;20591;-78
2023/09/13 04:50:43;;;;;;;;;;;22.80;70.90;;;;;;5026091;28;19971;-78
2023/09/13 04:53:11;;;;;;;;;;;22.60;72.00;;;;;;5068374;28;20113;-78
2023/09/13 04:55:38;;;;;;;;;;;22.40;73.10;;;;;;5066291;28;19991;-79
2023/09/13 04:58:05;;;;;;;;;;;22.40;73.20;;;;;;5054010;28;20863;-78
2023/09/13 05:00:31;;;;;;;;;;;22.30;73.20;;;;;;5069707;28;20158;-78
2023/09/13 05:02:58;;;;;;;;;;;22.30;73.30;;;;;;5052930;28;20175;-79
2023/09/13 05:05:25;;;;;;;;;;;22.40;73.40;;;;;;5055361;28;20230;-78
2023/09/13 05:07:53;;;;;;;;;;;22.30;73.60;;;;;;5072165;28;20567;-77
2023/09/13 05:10:21;;;;;;;;;;;22.30;74.30;;;;;;5055885;28;20666;-77
2023/09/13 05:12:48;;;;;;;;;;;22.40;73.80;;;;;;5073261;28;25078;-77
2023/09/13 05:15:14;;;;;;;;;;;22.30;73.80;;;;;;5070361;28;20077;-79
2023/09/13 05:17:41;;;;;;;;;;;22.40;73.80;;;;;;5066455;28;25060;-79
2023/09/13 05:20:08;;;;;;;;;;;22.30;73.80;;;;;;5072390;28;20001;-78
2023/09/13 05:22:35;;;;;;;;;;;22.40;73.80;;;;;;5069514;28;20153;-79
2023/09/13 05:25:01;;;;;;;;;;;22.40;73.90;;;;;;5055422;28;20174;-79
2023/09/13 05:27:30;;;;;;;;;;;22.30;74.00;;;;;;5054161;28;20754;-79
2023/09/13 05:29:56;;;;;;;;;;;22.30;74.10;;;;;;5055812;28;20143;-79
2023/09/13 05:32:34;;;;;;;;;;;22.30;74.30;;;;;;5067783;28;20026;-79
2023/09/13 05:35:01;;;;;;;;;;;22.30;74.30;;;;;;5068452;28;20155;-77
2023/09/13 05:37:27;;;;;;;;;;;22.30;74.40;;;;;;5065196;28;19995;-79
2023/09/13 05:39:54;;;;;;;;;;;22.30;74.50;;;;;;5071795;28;20148;-78
2023/09/13 05:42:21;;;;;;;;;;;22.30;74.50;;;;;;5054448;28;20138;-78
2023/09/13 05:44:50;;;;;;;;;;;22.30;74.70;;;;;;5069506;28;20155;-77
2023/09/13 05:47:17;;;;;;;;;;;22.30;74.70;;;;;;5065069;28;20011;-77
2023/09/13 05:49:43;;;;;;;;;;;22.30;74.80;;;;;;5061863;28;20151;-78
2023/09/13 05:52:10;;;;;;;;;;;22.20;74.70;;;;;;5066583;28;20160;-78
2023/09/13 05:54:37;;;;;;;;;;;22.20;74.80;;;;;;5064756;28;20004;-78
2023/09/13 05:57:03;;;;;;;;;;;22.20;74.90;;;;;;5050672;28;25143;-78
2023/09/13 05:59:35;;;;;;;;;;;22.20;75.00;;;;;;5050345;28;20033;-78
2023/09/13 06:02:03;;;;;;;;;;;22.20;75.30;;;;;;5044306;28;20734;-79
2023/09/13 06:04:30;;;;;;;;;;;22.20;75.00;;;;;;5067226;28;20217;-79
2023/09/13 06:06:56;;;;;;;;;;;22.20;75.10;;;;;;5073120;28;20115;-78
2023/09/13 06:09:23;;;;;;;;;;;22.20;75.40;;;;;;5072258;28;20169;-78
2023/09/13 06:11:49;;;;;;;;;;;22.10;75.10;;;;;;5065390;28;20024;-78
2023/09/13 06:14:18;;;;;;;;;;;22.10;75.20;;;;;;5068557;28;20120;-78
2023/09/13 06:16:45;;;;;;;;;;;22.10;75.20;;;;;;5065057;28;20165;-78
2023/09/13 06:19:13;;;;;;;;;;;22.10;75.40;;;;;;5071143;28;25047;-77
2023/09/13 06:21:39;;;;;;;;;;;22.10;75.40;;;;;;5064862;28;19989;-77
2023/09/13 06:24:07;;;;;;;;;;;22.10;75.50;;;;;;5059748;28;20154;-78
2023/09/13 06:26:34;;;;;;;;;;;22.10;75.70;;;;;;5063791;28;19997;-78
2023/09/13 06:29:01;;;;;;;;;;;22.00;75.60;;;;;;5059927;28;20210;-78
2023/09/13 06:31:28;;;;;;;;;;;22.00;75.80;;;;;;5058663;28;20173;-78
2023/09/13 06:33:55;;;;;;;;;;;22.00;75.90;;;;;;5064165;28;19982;-78
2023/09/13 06:36:23;;;;;;;;;;;22.00;75.90;;;;;;5075389;28;20129;-77
2023/09/13 06:38:50;;;;;;;;;;;22.00;75.90;;;;;;5068221;28;25064;-76
2023/09/13 06:41:16;;;;;;;;;;;22.00;76.10;;;;;;5072338;28;19976;-79
2023/09/13 06:43:44;;;;;;;;;;;22.00;76.20;;;;;;5067485;28;25072;-78
2023/09/13 06:46:12;;;;;;;;;;;22.00;76.20;;;;;;5049511;28;20399;-77
2023/09/13 06:48:39;;;;;;;;;;;22.00;76.20;;;;;;5077141;28;20150;-78
2023/09/13 06:51:06;;;;;;;;;;;22.00;76.40;;;;;;5047851;28;19994;-78
2023/09/13 06:53:34;;;;;;;;;;;21.90;76.50;;;;;;5069734;28;25089;-78
2023/09/13 06:56:00;;;;;;;;;;;21.90;76.50;;;;;;5068561;28;19977;-77
2023/09/13 06:58:27;;;;;;;;;;;21.90;76.70;;;;;;5068852;28;20131;-78
2023/09/13 07:00:54;;;;;;;;;;;21.90;76.70;;;;;;5066769;28;20192;-79
2023/09/13 07:03:20;;;;;;;;;;;21.90;76.80;;;;;;5041092;28;25112;-79
2023/09/13 07:05:47;;;;;;;;;;;21.90;76.90;;;;;;5072755;28;19990;-78
2023/09/13 07:08:14;;;;;;;;;;;21.90;76.90;;;;;;5066275;28;25151;-78
2023/09/13 07:10:42;;;;;;;;;;;21.90;77.00;;;;;;5068185;28;20762;-80
2023/09/13 07:13:08;;;;;;;;;;;21.90;77.00;;;;;;5047901;28;20404;-78
2023/09/13 07:15:35;;;;;;;;;;;21.90;77.10;;;;;;5051520;28;20168;-78
2023/09/13 07:18:02;;;;;;;;;;;21.80;77.20;;;;;;5053738;28;25168;-77
2023/09/13 07:20:29;;;;;;;;;;;21.90;77.10;;;;;;5058932;28;20051;-78
2023/09/13 07:22:55;;;;;;;;;;;21.90;77.20;;;;;;5060976;28;20127;-78
2023/09/13 07:25:22;;;;;;;;;;;21.80;77.20;;;;;;5045100;28;25093;-78
2023/09/13 07:27:50;;;;;;;;;;;21.90;77.10;;;;;;5061306;28;19979;-77
2023/09/13 07:30:18;;;;;;;;;;;21.90;77.10;;;;;;5062805;28;20138;-78
2023/09/13 07:32:48;;;;;;;;;;;21.90;77.10;;;;;;5062790;28;19987;-79
2023/09/13 07:35:15;;;;;;;;;;;21.80;77.20;;;;;;5064716;28;25074;-77
2023/09/13 07:37:44;;;;;;;;;;;21.80;77.10;;;;;;5062836;28;20336;-78
2023/09/13 07:40:11;;;;;;;;;;;21.80;77.10;;;;;;5063811;28;25071;-78
2023/09/13 07:42:38;;;;;;;;;;;21.80;77.10;;;;;;5032206;28;20013;-77
2023/09/13 07:45:08;;;;;;;;;;;21.90;77.10;;;;;;5066393;28;20144;-79
2023/09/13 07:47:34;;;;;;;;;;;21.80;77.00;;;;;;5064810;28;21029;-79
2023/09/13 07:50:02;;;;;;;;;;;21.80;77.10;;;;;;5047565;28;20159;-78
2023/09/13 07:52:28;;;;;;;;;;;21.80;77.80;;;;;;5046025;28;20856;-79
2023/09/13 07:54:54;;;;;;;;;;;21.80;77.10;;;;;;5042941;28;25167;-78
2023/09/13 07:57:20;;;;;;;;;;;21.80;77.10;;;;;;5061027;28;19978;-78
2023/09/13 07:59:47;;;;;;;;;;;21.80;77.00;;;;;;5044726;28;25069;-77
2023/09/13 08:02:15;;;;;;;;;;;21.80;77.00;;;;;;5042391;28;19967;-79
2023/09/13 08:04:42;;;;;;;;;;;21.80;77.00;;;;;;5062288;28;20138;-78
2023/09/13 08:07:09;;;;;;;;;;;21.80;77.00;;;;;;5064761;28;19996;-78
2023/09/13 08:09:36;;;;;;;;;;;21.80;77.00;;;;;;5067815;28;20212;-77
2023/09/13 08:12:03;;;;;;;;;;;21.80;76.90;;;;;;5047066;28;20134;-78
2023/09/13 08:14:30;;;;;;;;;;;21.80;77.00;;;;;;5063805;28;25177;-79
2023/09/13 08:16:56;;;;;;;;;;;21.90;77.00;;;;;;5061873;28;20479;-78
2023/09/13 08:19:25;;;;;;;;;;;21.80;77.00;;;;;;5031319;28;20694;-78
2023/09/13 08:21:52;;;;;;;;;;;21.90;77.00;;;;;;5058259;28;20098;-78
2023/09/13 08:24:18;;;;;;;;;;;21.90;77.00;;;;;;5045580;28;25133;-78
2023/09/13 08:26:45;;;;;;;;;;;21.80;76.90;;;;;;5064638;28;19980;-78
2023/09/13 08:29:10;;;;;;;;;;;21.80;77.00;;;;;;5063749;28;20160;-77
2023/09/13 08:31:37;;;;;;;;;;;21.90;77.10;;;;;;5060155;28;19979;-79
2023/09/13 08:34:04;;;;;;;;;;;21.80;77.10;;;;;;5063655;28;20091;-79
2023/09/13 08:36:33;;;;;;;;;;;21.90;77.20;;;;;;5051221;28;20131;-78
2023/09/13 08:39:00;;;;;;;;;;;21.80;77.10;;;;;;5063952;28;20076;-78
2023/09/13 08:41:27;;;;;;;;;;;21.80;77.20;;;;;;5060345;28;20162;-78
2023/09/13 08:43:54;;;;;;;;;;;21.80;77.20;;;;;;5063877;28;19995;-78
2023/09/13 08:46:22;;;;;;;;;;;21.80;77.20;;;;;;5065766;28;25096;-76
2023/09/13 08:48:50;;;;;;;;;;;21.80;77.20;;;;;;5068873;28;20039;-78
2023/09/13 08:51:17;;;;;;;;;;;21.80;77.10;;;;;;5062600;28;20117;-78
2023/09/13 08:53:46;;;;;;;;;;;21.80;77.10;;;;;;5061267;28;21910;-78
2023/09/13 08:56:13;;;;;;;;;;;21.90;77.20;;;;;;5063098;28;20139;-78
2023/09/13 08:58:39;;;;;;;;;;;21.90;77.20;;;;;;5063506;28;20018;-83
2023/09/13 09:01:09;;;;;;;;;;;21.80;77.20;;;;;;5049022;28;20199;-79
2023/09/13 09:03:36;;;;;;;;;;;21.80;77.30;;;;;;5047157;28;20108;-78
2023/09/13 09:06:04;;;;;;;;;;;21.80;77.50;;;;;;5046783;28;20186;-78
2023/09/13 09:08:31;;;;;;;;;;;21.90;77.60;;;;;;5066173;28;20153;-77
2023/09/13 09:10:59;;;;;;;;;;;21.80;77.50;;;;;;5061438;28;20484;-77
2023/09/13 09:13:29;;;;;;;;;;;21.80;77.50;;;;;;5069678;28;20110;-78
2023/09/13 09:15:56;;;;;;;;;;;21.90;77.60;;;;;;5072093;28;20106;-78
2023/09/13 09:18:23;;;;;;;;;;;21.90;77.80;;;;;;5070093;28;20149;-79
2023/09/13 09:20:50;;;;;;;;;;;21.90;77.50;;;;;;5050178;28;20091;-78
2023/09/13 09:23:18;;;;;;;;;;;21.90;78.10;;;;;;5070047;28;25064;-78
2023/09/13 09:25:45;;;;;;;;;;;21.90;77.50;;;;;;5048849;28;20433;-77
2023/09/13 09:28:13;;;;;;;;;;;21.90;77.50;;;;;;5071512;28;20646;-78
2023/09/13 09:30:41;;;;;;;;;;;21.90;77.50;;;;;;5064586;28;19968;-79
2023/09/13 09:33:08;;;;;;;;;;;21.90;77.40;;;;;;5066610;28;25106;-78
2023/09/13 09:35:36;;;;;;;;;;;22.00;77.50;;;;;;5059501;28;19989;-78
2023/09/13 09:38:04;;;;;;;;;;;21.90;77.40;;;;;;5041093;28;20161;-78
2023/09/13 09:40:37;;;;;;;;;;;22.00;77.40;;;;;;5070889;28;20132;-78
2023/09/13 09:43:04;;;;;;;;;;;22.00;77.50;;;;;;5062396;28;20135;-79
2023/09/13 09:45:32;;;;;;;;;;;22.00;77.50;;;;;;5070862;28;20165;-78
2023/09/13 09:47:59;;;;;;;;;;;22.00;77.40;;;;;;5074698;28;19979;-79
2023/09/13 09:50:25;;;;;;;;;;;22.00;77.40;;;;;;5068279;28;25161;-78
2023/09/13 09:52:53;;;;;;;;;;;22.00;77.40;;;;;;5066875;28;19997;-78
2023/09/13 09:55:22;;;;;;;;;;;22.00;77.50;;;;;;5065265;28;25074;-77
2023/09/13 09:57:49;;;;;;;;;;;22.00;77.40;;;;;;5050155;28;19963;-78
2023/09/13 10:00:16;;;;;;;;;;;22.00;77.40;;;;;;5065397;28;20127;-78
2023/09/13 10:02:45;;;;;;;;;;;22.00;77.40;;;;;;5065257;28;20956;-77
2023/09/13 10:05:16;;;;;;;;;;;22.00;77.50;;;;;;5062468;28;20125;-78
2023/09/13 10:07:50;;;;;;;;;;;22.10;77.60;;;;;;5058449;28;20114;-78
2023/09/13 10:10:27;;;;;;;;;;;22.10;77.70;;;;;;5064755;28;20117;-77
2023/09/13 10:12:54;;;;;;;;;;;22.10;77.70;;;;;;5066025;28;25128;-79
2023/09/13 10:15:21;;;;;;;;;;;22.10;77.50;;;;;;5045269;28;19967;-78
2023/09/13 10:17:50;;;;;;;;;;;22.10;77.50;;;;;;5063970;28;25078;-78
2023/09/13 10:20:17;;;;;;;;;;;22.10;77.60;;;;;;5041932;28;20020;-78
2023/09/13 10:22:46;;;;;;;;;;;22.20;77.60;;;;;;5043028;28;19976;-78
2023/09/13 10:25:15;;;;;;;;;;;22.20;77.40;;;;;;5060992;28;20138;-78
2023/09/13 10:27:43;;;;;;;;;;;22.20;77.20;;;;;;5041355;28;19992;-79
2023/09/13 10:30:11;;;;;;;;;;;22.30;77.30;;;;;;5061364;28;25138;-77
2023/09/13 10:32:40;;;;;;;;;;;22.30;77.00;;;;;;5061992;28;20004;-78
2023/09/13 10:35:11;;;;;;;;;;;22.40;77.00;;;;;;5064891;28;20175;-77
2023/09/13 10:37:41;;;;;;;;;;;22.30;76.70;;;;;;5065018;28;19983;-78
2023/09/13 10:40:10;;;;;;;;;;;22.40;76.50;;;;;;5060648;28;20103;-78
2023/09/13 10:42:39;;;;;;;;;;;22.40;76.30;;;;;;5046493;28;25087;-79
2023/09/13 10:45:06;;;;;;;;;;;22.50;76.20;;;;;;5061039;28;20531;-79
2023/09/13 10:47:33;;;;;;;;;;;22.50;76.10;;;;;;5041513;28;25089;-79
2023/09/13 10:50:01;;;;;;;;;;;22.60;76.20;;;;;;5041907;28;20012;-77
2023/09/13 10:52:30;;;;;;;;;;;22.60;75.90;;;;;;5062094;28;25057;-78
2023/09/13 10:54:57;;;;;;;;;;;22.60;75.70;;;;;;5048964;28;19994;-77
2023/09/13 10:57:26;;;;;;;;;;;22.70;75.60;;;;;;5046128;28;25156;-79
2023/09/13 10:59:53;;;;;;;;;;;22.70;75.40;;;;;;5046792;28;20085;-78
2023/09/13 11:02:21;;;;;;;;;;;22.80;75.30;;;;;;5060328;28;20224;-78
2023/09/13 11:04:48;;;;;;;;;;;22.80;75.10;;;;;;5056359;28;20171;-78
2023/09/13 11:07:15;;;;;;;;;;;22.90;75.20;;;;;;5059517;28;20121;-76
2023/09/13 11:09:45;;;;;;;;;;;22.90;75.10;;;;;;5059201;28;20568;-79
2023/09/13 11:12:12;;;;;;;;;;;22.90;75.00;;;;;;5060195;28;25130;-78
2023/09/13 11:14:43;;;;;;;;;;;23.00;74.90;;;;;;5061223;28;19984;-78
2023/09/13 11:17:11;;;;;;;;;;;23.00;74.80;;;;;;5061260;28;20135;-79
2023/09/13 11:19:37;;;;;;;;;;;23.00;74.70;;;;;;5057644;28;25080;-78
2023/09/13 11:22:06;;;;;;;;;;;23.00;74.70;;;;;;5062910;28;20013;-78
2023/09/13 11:24:36;;;;;;;;;;;23.00;74.50;;;;;;5060137;28;20605;-78
2023/09/13 11:27:11;;;;;;;;;;;23.00;74.40;;;;;;5059961;28;20146;-78
2023/09/13 11:29:43;;;;;;;;;;;23.10;74.40;;;;;;5054630;28;20018;-77
2023/09/13 11:32:16;;;;;;;;;;;23.10;74.30;;;;;;5039443;28;20198;-78
2023/09/13 11:34:42;;;;;;;;;;;23.20;74.20;;;;;;5058182;28;20129;-78
2023/09/13 11:37:11;;;;;;;;;;;23.20;74.20;;;;;;5054513;28;20036;-78
2023/09/13 11:39:39;;;;;;;;;;;23.20;74.20;;;;;;5063411;28;20500;-78
2023/09/13 11:42:08;;;;;;;;;;;23.20;74.20;;;;;;5061902;28;20155;-77
2023/09/13 11:44:36;;;;;;;;;;;23.30;74.40;;;;;;5063175;28;25146;-79
2023/09/13 11:47:03;;;;;;;;;;;23.30;74.30;;;;;;5061743;28;20014;-77
2023/09/13 11:49:29;;;;;;;;;;;23.30;74.40;;;;;;5062749;28;20134;-78
2023/09/13 11:51:58;;;;;;;;;;;23.30;74.50;;;;;;5065732;28;20143;-77
2023/09/13 11:54:26;;;;;;;;;;;23.30;74.50;;;;;;5060478;28;20946;-78
2023/09/13 11:56:53;;;;;;;;;;;23.30;74.90;;;;;;5064992;28;20116;-78
2023/09/13 11:59:23;;;;;;;;;;;23.30;75.30;;;;;;5046314;28;20153;-78
2023/09/13 12:01:52;;;;;;;;;;;23.30;75.10;;;;;;5059326;28;20192;-77
2023/09/13 12:04:20;;;;;;;;;;;23.30;75.10;;;;;;5064943;28;25109;-78
2023/09/13 12:06:48;;;;;;;;;;;23.20;75.20;;;;;;5063683;28;19998;-77
2023/09/13 12:09:16;;;;;;;;;;;23.20;75.80;;;;;;5039648;28;25171;-76
2023/09/13 12:11:43;;;;;;;;;;;23.20;75.50;;;;;;5044212;28;20010;-78
2023/09/13 12:14:10;;;;;;;;;;;23.20;77.10;;;;;;5039326;28;20242;-79
2023/09/13 12:16:37;;;;;;;;;;;23.20;77.80;;;;;;5041172;28;20448;-79
2023/09/13 12:19:06;;;;;;;;;;;23.20;78.40;;;;;;5065388;28;20108;-79
2023/09/13 12:21:33;;;;;;;;;;;23.20;79.30;;;;;;5064067;28;20251;-79
2023/09/13 12:23:59;;;;;;;;;;;23.20;80.50;;;;;;5064003;28;20216;-80
2023/09/13 12:26:27;;;;;;;;;;;23.20;79.80;;;;;;5049457;28;20159;-80
2023/09/13 12:28:54;;;;;;;;;;;23.20;80.60;;;;;;5044819;28;20721;-80
2023/09/13 12:31:21;;;;;;;;;;;23.20;82.10;;;;;;5062441;28;20022;-79
2023/09/13 12:33:49;;;;;;;;;;;23.20;81.30;;;;;;5059349;28;25068;-80
2023/09/13 12:36:17;;;;;;;;;;;23.20;80.40;;;;;;5045516;28;19988;-78
2023/09/13 12:38:48;;;;;;;;;;;23.20;81.50;;;;;;5061195;28;25065;-80
2023/09/13 12:41:16;;;;;;;;;;;23.10;81.60;;;;;;5065403;28;19998;-79
2023/09/13 12:43:44;;;;;;;;;;;23.10;81.00;;;;;;5063574;28;25071;-78
2023/09/13 12:46:13;;;;;;;;;;;23.10;81.40;;;;;;5063609;28;20005;-80
2023/09/13 12:48:41;;;;;;;;;;;23.10;81.50;;;;;;5063347;28;20147;-80
2023/09/13 12:51:08;;;;;;;;;;;23.10;81.80;;;;;;5044729;28;20143;-79
2023/09/13 12:53:36;;;;;;;;;;;23.10;82.30;;;;;;5065377;28;20162;-78
2023/09/13 12:56:03;;;;;;;;;;;23.10;82.40;;;;;;5059600;28;25140;-80
2023/09/13 12:58:30;;;;;;;;;;;23.10;82.20;;;;;;5051531;28;19991;-80
2023/09/13 13:00:57;;;;;;;;;;;23.10;81.90;;;;;;5063296;28;20141;-78
2023/09/13 13:03:27;;;;;;;;;;;23.00;82.80;;;;;;5045607;28;25080;-80
2023/09/13 13:05:55;;;;;;;;;;;23.10;83.00;;;;;;5062078;28;20780;-80
2023/09/13 13:08:23;;;;;;;;;;;23.10;83.30;;;;;;5063489;28;25152;-80
2023/09/13 13:10:58;;;;;;;;;;;23.10;83.00;;;;;;5043555;28;20011;-79
2023/09/13 13:13:32;;;;;;;;;;;23.10;83.50;;;;;;5062920;28;20180;-80
2023/09/13 13:16:00;;;;;;;;;;;23.10;82.40;;;;;;5059595;28;20211;-80
2023/09/13 13:18:27;;;;;;;;;;;23.10;81.90;;;;;;5062489;28;25087;-79
2023/09/13 13:20:54;;;;;;;;;;;23.10;82.10;;;;;;5061448;28;19990;-79
2023/09/13 13:23:23;;;;;;;;;;;23.10;82.00;;;;;;5061654;28;25060;-80
2023/09/13 13:25:51;;;;;;;;;;;23.10;81.90;;;;;;5061446;28;19985;-79
2023/09/13 13:28:19;;;;;;;;;;;23.10;82.00;;;;;;5062833;28;25086;-79
2023/09/13 13:30:56;;;;;;;;;;;23.10;82.70;;;;;;5058176;28;20026;-79
2023/09/13 13:33:23;;;;;;;;;;;23.10;82.00;;;;;;5062997;28;20168;-80
2023/09/13 13:35:50;;;;;;;;;;;23.10;82.30;;;;;;5057864;28;20106;-81
2023/09/13 13:38:17;;;;;;;;;;;23.10;82.30;;;;;;5063417;28;20145;-79
2023/09/13 13:40:43;;;;;;;;;;;23.10;82.20;;;;;;5062961;28;20616;-80
2023/09/13 13:43:10;;;;;;;;;;;23.10;81.90;;;;;;5047112;28;20293;-79
2023/09/13 13:45:39;;;;;;;;;;;23.10;81.80;;;;;;5063817;28;25061;-78
2023/09/13 13:48:07;;;;;;;;;;;23.10;83.20;;;;;;5067188;28;20562;-79
2023/09/13 13:50:33;;;;;;;;;;;23.10;83.30;;;;;;5061748;28;20006;-80
2023/09/13 13:53:00;;;;;;;;;;;23.10;83.20;;;;;;5062129;28;20175;-79
2023/09/13 13:55:28;;;;;;;;;;;23.10;83.10;;;;;;5066641;28;20741;-78
2023/09/13 13:57:55;;;;;;;;;;;23.10;83.00;;;;;;5066257;28;20474;-78
2023/09/13 14:00:22;;;;;;;;;;;23.10;82.50;;;;;;5060589;28;20611;-79
2023/09/13 14:02:54;;;;;;;;;;;23.10;82.10;;;;;;5059780;28;20021;-79
2023/09/13 14:05:20;;;;;;;;;;;23.10;82.00;;;;;;5061260;28;20130;-78
2023/09/13 14:07:47;;;;;;;;;;;23.10;82.00;;;;;;5064159;28;20153;-79
2023/09/13 14:10:14;;;;;;;;;;;23.10;82.10;;;;;;5067135;28;20002;-77
2023/09/13 14:12:40;;;;;;;;;;;23.10;82.20;;;;;;5067136;28;20100;-79
2023/09/13 14:15:08;;;;;;;;;;;23.10;82.20;;;;;;5067259;28;20129;-78
2023/09/13 14:17:35;;;;;;;;;;;23.10;82.50;;;;;;5028031;28;20205;-78